sensor_id;sensor_type;location;lat;lon;timestamp;P1;durP1;ratioP1;P2;durP2;ratioP2
18316;SDS011;9284;52.298;21.164;2023-04-30T00:00:37;18.80;;;11.00;;
18316;SDS011;9284;52.298;21.164;2023-04-30T00:03:06;21.30;;;11.13;;
18316;SDS011;9284;52.298;21.164;2023-04-30T00:05:34;19.20;;;11.30;;
18316;SDS011;9284;52.298;21.164;2023-04-30T00:08:05;20.73;;;11.32;;
18316;SDS011;9284;52.298;21.164;2023-04-30T00:10:33;19.02;;;12.10;;
18316;SDS011;9284;52.298;21.164;2023-04-30T00:13:02;19.15;;;11.82;;
18316;SDS011;9284;52.298;21.164;2023-04-30T00:15:30;23.25;;;12.07;;
18316;SDS011;9284;52.298;21.164;2023-04-30T00:17:58;23.13;;;11.48;;
18316;SDS011;9284;52.298;21.164;2023-04-30T00:20:26;18.95;;;11.80;;
18316;SDS011;9284;52.298;21.164;2023-04-30T00:22:55;18.42;;;11.70;;
18316;SDS011;9284;52.298;21.164;2023-04-30T00:25:24;24.85;;;12.27;;
18316;SDS011;9284;52.298;21.164;2023-04-30T00:27:53;20.45;;;11.65;;
18316;SDS011;9284;52.298;21.164;2023-04-30T00:30:21;22.77;;;11.57;;
18316;SDS011;9284;52.298;21.164;2023-04-30T00:32:49;23.33;;;11.73;;
18316;SDS011;9284;52.298;21.164;2023-04-30T00:35:18;23.00;;;12.77;;
18316;SDS011;9284;52.298;21.164;2023-04-30T00:37:46;20.08;;;11.50;;
18316;SDS011;9284;52.298;21.164;2023-04-30T00:40:14;18.77;;;11.90;;
18316;SDS011;9284;52.298;21.164;2023-04-30T00:42:44;19.45;;;12.20;;
18316;SDS011;9284;52.298;21.164;2023-04-30T00:45:14;21.88;;;12.35;;
18316;SDS011;9284;52.298;21.164;2023-04-30T00:47:43;21.58;;;11.98;;
18316;SDS011;9284;52.298;21.164;2023-04-30T00:50:11;24.23;;;12.75;;
18316;SDS011;9284;52.298;21.164;2023-04-30T00:52:42;20.50;;;13.18;;
18316;SDS011;9284;52.298;21.164;2023-04-30T00:55:10;22.70;;;13.02;;
18316;SDS011;9284;52.298;21.164;2023-04-30T00:57:39;25.05;;;12.57;;
18316;SDS011;9284;52.298;21.164;2023-04-30T01:00:09;19.70;;;11.93;;
18316;SDS011;9284;52.298;21.164;2023-04-30T01:02:39;18.77;;;12.32;;
18316;SDS011;9284;52.298;21.164;2023-04-30T01:05:08;19.92;;;12.23;;
18316;SDS011;9284;52.298;21.164;2023-04-30T01:07:37;17.13;;;11.85;;
18316;SDS011;9284;52.298;21.164;2023-04-30T01:10:10;21.80;;;12.20;;
18316;SDS011;9284;52.298;21.164;2023-04-30T01:12:42;16.80;;;11.15;;
18316;SDS011;9284;52.298;21.164;2023-04-30T01:15:20;23.75;;;12.73;;
18316;SDS011;9284;52.298;21.164;2023-04-30T01:17:54;20.80;;;12.07;;
18316;SDS011;9284;52.298;21.164;2023-04-30T01:20:25;24.40;;;12.40;;
18316;SDS011;9284;52.298;21.164;2023-04-30T01:22:57;18.73;;;11.70;;
18316;SDS011;9284;52.298;21.164;2023-04-30T01:25:49;18.17;;;11.82;;
18316;SDS011;9284;52.298;21.164;2023-04-30T01:28:24;18.25;;;12.15;;
18316;SDS011;9284;52.298;21.164;2023-04-30T01:30:55;19.17;;;12.32;;
18316;SDS011;9284;52.298;21.164;2023-04-30T01:33:25;22.73;;;12.95;;
18316;SDS011;9284;52.298;21.164;2023-04-30T01:38:59;17.50;;;10.95;;
18316;SDS011;9284;52.298;21.164;2023-04-30T01:41:36;19.50;;;12.05;;
18316;SDS011;9284;52.298;21.164;2023-04-30T01:44:16;16.98;;;11.93;;
18316;SDS011;9284;52.298;21.164;2023-04-30T01:46:57;16.40;;;10.90;;
18316;SDS011;9284;52.298;21.164;2023-04-30T01:49:36;18.80;;;12.20;;
18316;SDS011;9284;52.298;21.164;2023-04-30T01:52:17;20.58;;;12.55;;
18316;SDS011;9284;52.298;21.164;2023-04-30T01:54:50;18.33;;;11.98;;
18316;SDS011;9284;52.298;21.164;2023-04-30T01:57:25;25.33;;;12.73;;
18316;SDS011;9284;52.298;21.164;2023-04-30T02:00:00;17.92;;;11.40;;
18316;SDS011;9284;52.298;21.164;2023-04-30T02:02:38;21.02;;;12.77;;
18316;SDS011;9284;52.298;21.164;2023-04-30T02:05:07;22.60;;;12.98;;
18316;SDS011;9284;52.298;21.164;2023-04-30T02:07:38;20.77;;;13.02;;
18316;SDS011;9284;52.298;21.164;2023-04-30T02:10:08;21.75;;;12.77;;
18316;SDS011;9284;52.298;21.164;2023-04-30T02:12:38;19.42;;;12.90;;
18316;SDS011;9284;52.298;21.164;2023-04-30T02:15:09;20.77;;;12.77;;
18316;SDS011;9284;52.298;21.164;2023-04-30T02:17:39;24.90;;;13.13;;
18316;SDS011;9284;52.298;21.164;2023-04-30T02:20:08;21.15;;;13.45;;
18316;SDS011;9284;52.298;21.164;2023-04-30T02:22:37;21.92;;;13.52;;
18316;SDS011;9284;52.298;21.164;2023-04-30T02:25:06;24.52;;;13.80;;
18316;SDS011;9284;52.298;21.164;2023-04-30T02:27:36;18.25;;;12.30;;
18316;SDS011;9284;52.298;21.164;2023-04-30T02:30:05;20.05;;;12.82;;
18316;SDS011;9284;52.298;21.164;2023-04-30T02:32:36;22.92;;;12.50;;
18316;SDS011;9284;52.298;21.164;2023-04-30T02:35:04;23.83;;;13.57;;
18316;SDS011;9284;52.298;21.164;2023-04-30T02:37:35;21.73;;;12.88;;
18316;SDS011;9284;52.298;21.164;2023-04-30T02:40:04;23.67;;;13.75;;
18316;SDS011;9284;52.298;21.164;2023-04-30T02:42:34;20.85;;;13.50;;
18316;SDS011;9284;52.298;21.164;2023-04-30T02:45:03;21.77;;;13.65;;
18316;SDS011;9284;52.298;21.164;2023-04-30T02:47:31;24.67;;;13.98;;
18316;SDS011;9284;52.298;21.164;2023-04-30T02:50:01;20.33;;;13.45;;
18316;SDS011;9284;52.298;21.164;2023-04-30T02:52:31;26.25;;;14.95;;
18316;SDS011;9284;52.298;21.164;2023-04-30T02:54:59;21.73;;;14.00;;
18316;SDS011;9284;52.298;21.164;2023-04-30T02:57:27;20.10;;;13.45;;
18316;SDS011;9284;52.298;21.164;2023-04-30T02:59:55;27.17;;;14.50;;
18316;SDS011;9284;52.298;21.164;2023-04-30T03:02:24;23.42;;;14.90;;
18316;SDS011;9284;52.298;21.164;2023-04-30T03:04:52;31.80;;;14.73;;
18316;SDS011;9284;52.298;21.164;2023-04-30T03:07:22;25.17;;;15.40;;
18316;SDS011;9284;52.298;21.164;2023-04-30T03:09:50;24.88;;;15.32;;
18316;SDS011;9284;52.298;21.164;2023-04-30T03:12:19;26.13;;;15.85;;
18316;SDS011;9284;52.298;21.164;2023-04-30T03:14:47;26.55;;;15.85;;
18316;SDS011;9284;52.298;21.164;2023-04-30T03:17:16;23.73;;;15.35;;
18316;SDS011;9284;52.298;21.164;2023-04-30T03:19:44;24.92;;;16.30;;
18316;SDS011;9284;52.298;21.164;2023-04-30T03:22:12;22.73;;;15.07;;
18316;SDS011;9284;52.298;21.164;2023-04-30T03:24:42;24.08;;;14.95;;
18316;SDS011;9284;52.298;21.164;2023-04-30T03:27:10;25.60;;;15.77;;
18316;SDS011;9284;52.298;21.164;2023-04-30T03:29:39;28.80;;;16.42;;
18316;SDS011;9284;52.298;21.164;2023-04-30T03:32:07;24.23;;;15.38;;
18316;SDS011;9284;52.298;21.164;2023-04-30T03:34:36;22.52;;;15.45;;
18316;SDS011;9284;52.298;21.164;2023-04-30T03:37:05;22.95;;;14.80;;
18316;SDS011;9284;52.298;21.164;2023-04-30T03:39:33;29.67;;;16.90;;
18316;SDS011;9284;52.298;21.164;2023-04-30T03:42:03;23.70;;;14.82;;
18316;SDS011;9284;52.298;21.164;2023-04-30T03:44:31;20.52;;;13.02;;
18316;SDS011;9284;52.298;21.164;2023-04-30T03:46:59;20.60;;;13.15;;
18316;SDS011;9284;52.298;21.164;2023-04-30T03:49:27;16.98;;;11.68;;
18316;SDS011;9284;52.298;21.164;2023-04-30T03:51:56;19.83;;;12.15;;
18316;SDS011;9284;52.298;21.164;2023-04-30T03:54:24;19.75;;;11.75;;
18316;SDS011;9284;52.298;21.164;2023-04-30T03:56:53;19.05;;;10.43;;
18316;SDS011;9284;52.298;21.164;2023-04-30T03:59:23;13.82;;;9.88;;
18316;SDS011;9284;52.298;21.164;2023-04-30T04:01:52;14.82;;;10.35;;
18316;SDS011;9284;52.298;21.164;2023-04-30T04:04:21;11.27;;;8.18;;
18316;SDS011;9284;52.298;21.164;2023-04-30T04:06:49;12.27;;;8.35;;
18316;SDS011;9284;52.298;21.164;2023-04-30T04:09:17;11.25;;;6.88;;
18316;SDS011;9284;52.298;21.164;2023-04-30T04:11:46;10.85;;;6.30;;
18316;SDS011;9284;52.298;21.164;2023-04-30T04:14:14;9.52;;;6.63;;
18316;SDS011;9284;52.298;21.164;2023-04-30T04:16:44;9.48;;;6.03;;
18316;SDS011;9284;52.298;21.164;2023-04-30T04:19:12;19.85;;;11.63;;
18316;SDS011;9284;52.298;21.164;2023-04-30T04:21:41;22.13;;;15.10;;
18316;SDS011;9284;52.298;21.164;2023-04-30T04:24:13;33.33;;;23.25;;
18316;SDS011;9284;52.298;21.164;2023-04-30T04:26:42;32.65;;;22.63;;
18316;SDS011;9284;52.298;21.164;2023-04-30T04:29:13;37.58;;;26.95;;
18316;SDS011;9284;52.298;21.164;2023-04-30T04:31:42;23.67;;;14.60;;
18316;SDS011;9284;52.298;21.164;2023-04-30T04:34:14;14.88;;;7.30;;
18316;SDS011;9284;52.298;21.164;2023-04-30T04:36:43;9.48;;;5.55;;
18316;SDS011;9284;52.298;21.164;2023-04-30T04:39:14;11.10;;;5.82;;
18316;SDS011;9284;52.298;21.164;2023-04-30T04:41:44;9.10;;;5.70;;
18316;SDS011;9284;52.298;21.164;2023-04-30T04:44:12;12.13;;;6.10;;
18316;SDS011;9284;52.298;21.164;2023-04-30T04:46:40;10.35;;;6.40;;
18316;SDS011;9284;52.298;21.164;2023-04-30T04:49:11;10.20;;;5.72;;
18316;SDS011;9284;52.298;21.164;2023-04-30T04:51:39;8.15;;;5.40;;
18316;SDS011;9284;52.298;21.164;2023-04-30T04:54:07;10.75;;;5.85;;
18316;SDS011;9284;52.298;21.164;2023-04-30T04:56:36;10.57;;;6.38;;
18316;SDS011;9284;52.298;21.164;2023-04-30T04:59:04;9.38;;;6.10;;
18316;SDS011;9284;52.298;21.164;2023-04-30T05:01:33;10.85;;;6.00;;
18316;SDS011;9284;52.298;21.164;2023-04-30T05:04:01;9.60;;;6.03;;
18316;SDS011;9284;52.298;21.164;2023-04-30T05:06:32;10.07;;;6.20;;
18316;SDS011;9284;52.298;21.164;2023-04-30T05:09:00;8.15;;;5.55;;
18316;SDS011;9284;52.298;21.164;2023-04-30T05:11:30;10.63;;;5.93;;
18316;SDS011;9284;52.298;21.164;2023-04-30T05:13:58;8.93;;;5.85;;
18316;SDS011;9284;52.298;21.164;2023-04-30T05:16:27;9.75;;;6.15;;
18316;SDS011;9284;52.298;21.164;2023-04-30T05:18:55;12.43;;;7.25;;
18316;SDS011;9284;52.298;21.164;2023-04-30T05:21:23;9.52;;;6.60;;
18316;SDS011;9284;52.298;21.164;2023-04-30T05:23:56;7.65;;;5.82;;
18316;SDS011;9284;52.298;21.164;2023-04-30T05:26:24;8.05;;;5.65;;
18316;SDS011;9284;52.298;21.164;2023-04-30T05:28:53;8.65;;;5.90;;
18316;SDS011;9284;52.298;21.164;2023-04-30T05:31:21;12.55;;;6.57;;
18316;SDS011;9284;52.298;21.164;2023-04-30T05:33:49;11.88;;;7.15;;
18316;SDS011;9284;52.298;21.164;2023-04-30T05:36:18;12.52;;;7.40;;
18316;SDS011;9284;52.298;21.164;2023-04-30T05:38:46;15.77;;;7.63;;
18316;SDS011;9284;52.298;21.164;2023-04-30T05:41:15;13.00;;;7.70;;
18316;SDS011;9284;52.298;21.164;2023-04-30T05:43:44;11.38;;;7.78;;
18316;SDS011;9284;52.298;21.164;2023-04-30T05:46:12;15.45;;;7.60;;
18316;SDS011;9284;52.298;21.164;2023-04-30T05:48:40;13.00;;;8.00;;
18316;SDS011;9284;52.298;21.164;2023-04-30T05:51:08;12.60;;;7.63;;
18316;SDS011;9284;52.298;21.164;2023-04-30T05:53:37;12.90;;;7.80;;
18316;SDS011;9284;52.298;21.164;2023-04-30T05:56:05;13.57;;;7.75;;
18316;SDS011;9284;52.298;21.164;2023-04-30T05:58:35;13.27;;;7.22;;
18316;SDS011;9284;52.298;21.164;2023-04-30T06:01:03;14.55;;;7.18;;
18316;SDS011;9284;52.298;21.164;2023-04-30T06:03:32;10.18;;;6.68;;
18316;SDS011;9284;52.298;21.164;2023-04-30T06:06:00;13.98;;;6.75;;
18316;SDS011;9284;52.298;21.164;2023-04-30T06:08:28;15.40;;;6.70;;
18316;SDS011;9284;52.298;21.164;2023-04-30T06:10:57;13.60;;;6.97;;
18316;SDS011;9284;52.298;21.164;2023-04-30T06:13:26;9.75;;;6.35;;
18316;SDS011;9284;52.298;21.164;2023-04-30T06:15:55;9.85;;;6.53;;
18316;SDS011;9284;52.298;21.164;2023-04-30T06:18:23;9.85;;;5.75;;
18316;SDS011;9284;52.298;21.164;2023-04-30T06:20:52;10.32;;;6.15;;
18316;SDS011;9284;52.298;21.164;2023-04-30T06:23:20;10.88;;;5.93;;
18316;SDS011;9284;52.298;21.164;2023-04-30T06:25:48;11.40;;;5.93;;
18316;SDS011;9284;52.298;21.164;2023-04-30T06:28:16;12.10;;;6.13;;
18316;SDS011;9284;52.298;21.164;2023-04-30T06:30:45;7.47;;;5.00;;
18316;SDS011;9284;52.298;21.164;2023-04-30T06:33:15;9.57;;;5.13;;
18316;SDS011;9284;52.298;21.164;2023-04-30T06:35:43;10.75;;;5.03;;
18316;SDS011;9284;52.298;21.164;2023-04-30T06:38:11;9.82;;;4.57;;
18316;SDS011;9284;52.298;21.164;2023-04-30T06:40:40;12.23;;;4.15;;
18316;SDS011;9284;52.298;21.164;2023-04-30T06:43:08;12.52;;;4.20;;
18316;SDS011;9284;52.298;21.164;2023-04-30T06:45:37;5.05;;;3.22;;
18316;SDS011;9284;52.298;21.164;2023-04-30T06:48:05;7.90;;;3.15;;
18316;SDS011;9284;52.298;21.164;2023-04-30T06:50:35;4.40;;;3.22;;
18316;SDS011;9284;52.298;21.164;2023-04-30T06:53:10;6.97;;;3.20;;
18316;SDS011;9284;52.298;21.164;2023-04-30T06:55:39;8.10;;;3.42;;
18316;SDS011;9284;52.298;21.164;2023-04-30T06:58:08;6.72;;;2.83;;
18316;SDS011;9284;52.298;21.164;2023-04-30T07:00:36;8.65;;;2.97;;
18316;SDS011;9284;52.298;21.164;2023-04-30T07:03:05;7.47;;;2.80;;
18316;SDS011;9284;52.298;21.164;2023-04-30T07:05:34;9.90;;;3.28;;
18316;SDS011;9284;52.298;21.164;2023-04-30T07:08:07;5.05;;;3.10;;
18316;SDS011;9284;52.298;21.164;2023-04-30T07:10:35;6.93;;;2.90;;
18316;SDS011;9284;52.298;21.164;2023-04-30T07:13:04;4.50;;;2.83;;
18316;SDS011;9284;52.298;21.164;2023-04-30T07:15:33;6.57;;;2.83;;
18316;SDS011;9284;52.298;21.164;2023-04-30T07:18:01;5.90;;;3.25;;
18316;SDS011;9284;52.298;21.164;2023-04-30T07:20:30;6.75;;;3.10;;
18316;SDS011;9284;52.298;21.164;2023-04-30T07:23:00;5.95;;;3.13;;
18316;SDS011;9284;52.298;21.164;2023-04-30T07:25:28;9.65;;;3.28;;
18316;SDS011;9284;52.298;21.164;2023-04-30T07:27:57;6.97;;;3.08;;
18316;SDS011;9284;52.298;21.164;2023-04-30T07:30:25;7.15;;;3.45;;
18316;SDS011;9284;52.298;21.164;2023-04-30T07:32:53;6.47;;;3.47;;
18316;SDS011;9284;52.298;21.164;2023-04-30T07:35:22;7.40;;;4.28;;
18316;SDS011;9284;52.298;21.164;2023-04-30T07:37:51;5.55;;;3.72;;
18316;SDS011;9284;52.298;21.164;2023-04-30T07:40:20;7.15;;;3.25;;
18316;SDS011;9284;52.298;21.164;2023-04-30T07:43:01;5.57;;;2.72;;
18316;SDS011;9284;52.298;21.164;2023-04-30T07:45:29;3.70;;;2.50;;
18316;SDS011;9284;52.298;21.164;2023-04-30T07:47:59;4.60;;;2.45;;
18316;SDS011;9284;52.298;21.164;2023-04-30T07:50:28;11.30;;;2.72;;
18316;SDS011;9284;52.298;21.164;2023-04-30T07:53:00;5.10;;;2.40;;
18316;SDS011;9284;52.298;21.164;2023-04-30T07:55:30;5.63;;;2.75;;
18316;SDS011;9284;52.298;21.164;2023-04-30T07:57:58;5.88;;;2.40;;
18316;SDS011;9284;52.298;21.164;2023-04-30T08:00:27;4.30;;;2.33;;
18316;SDS011;9284;52.298;21.164;2023-04-30T08:02:56;5.90;;;2.47;;
18316;SDS011;9284;52.298;21.164;2023-04-30T08:05:26;6.55;;;2.65;;
18316;SDS011;9284;52.298;21.164;2023-04-30T08:07:56;5.85;;;2.95;;
18316;SDS011;9284;52.298;21.164;2023-04-30T08:10:24;4.53;;;2.40;;
18316;SDS011;9284;52.298;21.164;2023-04-30T08:12:54;7.18;;;3.45;;
18316;SDS011;9284;52.298;21.164;2023-04-30T08:15:23;5.40;;;2.50;;
18316;SDS011;9284;52.298;21.164;2023-04-30T08:17:53;11.77;;;2.97;;
18316;SDS011;9284;52.298;21.164;2023-04-30T08:20:21;4.63;;;3.08;;
18316;SDS011;9284;52.298;21.164;2023-04-30T08:22:50;5.40;;;3.10;;
18316;SDS011;9284;52.298;21.164;2023-04-30T08:25:18;5.28;;;2.60;;
18316;SDS011;9284;52.298;21.164;2023-04-30T08:27:46;5.45;;;2.83;;
18316;SDS011;9284;52.298;21.164;2023-04-30T08:30:16;4.20;;;2.50;;
18316;SDS011;9284;52.298;21.164;2023-04-30T08:32:45;4.55;;;2.47;;
18316;SDS011;9284;52.298;21.164;2023-04-30T08:35:13;3.78;;;2.60;;
18316;SDS011;9284;52.298;21.164;2023-04-30T08:37:45;3.22;;;2.38;;
18316;SDS011;9284;52.298;21.164;2023-04-30T08:40:13;4.53;;;2.38;;
18316;SDS011;9284;52.298;21.164;2023-04-30T08:42:43;6.28;;;2.30;;
18316;SDS011;9284;52.298;21.164;2023-04-30T08:45:16;6.18;;;2.97;;
18316;SDS011;9284;52.298;21.164;2023-04-30T08:47:45;6.85;;;2.80;;
18316;SDS011;9284;52.298;21.164;2023-04-30T08:50:15;4.03;;;2.53;;
18316;SDS011;9284;52.298;21.164;2023-04-30T08:52:44;4.95;;;2.92;;
18316;SDS011;9284;52.298;21.164;2023-04-30T08:55:12;7.07;;;2.92;;
18316;SDS011;9284;52.298;21.164;2023-04-30T08:57:40;4.90;;;2.75;;
18316;SDS011;9284;52.298;21.164;2023-04-30T09:00:09;6.40;;;2.92;;
18316;SDS011;9284;52.298;21.164;2023-04-30T09:02:39;9.10;;;3.17;;
18316;SDS011;9284;52.298;21.164;2023-04-30T09:05:08;5.93;;;3.13;;
18316;SDS011;9284;52.298;21.164;2023-04-30T09:07:39;7.55;;;2.95;;
18316;SDS011;9284;52.298;21.164;2023-04-30T09:10:21;9.65;;;2.97;;
18316;SDS011;9284;52.298;21.164;2023-04-30T09:12:58;7.40;;;3.10;;
18316;SDS011;9284;52.298;21.164;2023-04-30T09:15:28;7.55;;;3.15;;
18316;SDS011;9284;52.298;21.164;2023-04-30T09:18:09;8.13;;;3.05;;
18316;SDS011;9284;52.298;21.164;2023-04-30T09:20:52;8.65;;;3.03;;
18316;SDS011;9284;52.298;21.164;2023-04-30T09:23:22;6.05;;;3.03;;
18316;SDS011;9284;52.298;21.164;2023-04-30T09:25:51;4.40;;;2.85;;
18316;SDS011;9284;52.298;21.164;2023-04-30T09:28:19;6.43;;;2.80;;
18316;SDS011;9284;52.298;21.164;2023-04-30T09:30:52;5.07;;;2.80;;
18316;SDS011;9284;52.298;21.164;2023-04-30T09:33:22;6.78;;;3.05;;
18316;SDS011;9284;52.298;21.164;2023-04-30T09:35:50;5.40;;;2.45;;
18316;SDS011;9284;52.298;21.164;2023-04-30T09:38:26;3.70;;;2.03;;
18316;SDS011;9284;52.298;21.164;2023-04-30T09:40:56;5.15;;;2.40;;
18316;SDS011;9284;52.298;21.164;2023-04-30T09:43:26;3.65;;;2.40;;
18316;SDS011;9284;52.298;21.164;2023-04-30T09:45:56;5.50;;;1.95;;
18316;SDS011;9284;52.298;21.164;2023-04-30T09:48:26;7.82;;;1.92;;
18316;SDS011;9284;52.298;21.164;2023-04-30T09:50:55;5.13;;;1.80;;
18316;SDS011;9284;52.298;21.164;2023-04-30T09:53:25;4.55;;;1.90;;
18316;SDS011;9284;52.298;21.164;2023-04-30T09:55:54;2.85;;;1.70;;
18316;SDS011;9284;52.298;21.164;2023-04-30T09:58:28;6.35;;;1.90;;
18316;SDS011;9284;52.298;21.164;2023-04-30T10:00:59;3.53;;;1.70;;
18316;SDS011;9284;52.298;21.164;2023-04-30T10:03:30;3.40;;;1.83;;
18316;SDS011;9284;52.298;21.164;2023-04-30T10:05:59;2.78;;;1.52;;
18316;SDS011;9284;52.298;21.164;2023-04-30T10:08:29;3.47;;;1.60;;
18316;SDS011;9284;52.298;21.164;2023-04-30T10:10:58;2.90;;;1.50;;
18316;SDS011;9284;52.298;21.164;2023-04-30T10:13:30;7.28;;;2.00;;
18316;SDS011;9284;52.298;21.164;2023-04-30T10:16:03;4.53;;;1.80;;
18316;SDS011;9284;52.298;21.164;2023-04-30T10:18:38;4.88;;;1.48;;
18316;SDS011;9284;52.298;21.164;2023-04-30T10:21:09;6.00;;;1.60;;
18316;SDS011;9284;52.298;21.164;2023-04-30T10:23:42;3.70;;;1.60;;
18316;SDS011;9284;52.298;21.164;2023-04-30T10:26:11;3.25;;;1.67;;
18316;SDS011;9284;52.298;21.164;2023-04-30T10:28:39;4.28;;;1.85;;
18316;SDS011;9284;52.298;21.164;2023-04-30T10:31:08;4.35;;;1.67;;
18316;SDS011;9284;52.298;21.164;2023-04-30T10:33:40;6.47;;;1.33;;
18316;SDS011;9284;52.298;21.164;2023-04-30T10:36:17;2.95;;;1.63;;
18316;SDS011;9284;52.298;21.164;2023-04-30T10:38:52;4.28;;;1.30;;
18316;SDS011;9284;52.298;21.164;2023-04-30T10:41:21;4.38;;;1.23;;
18316;SDS011;9284;52.298;21.164;2023-04-30T10:43:51;6.28;;;1.48;;
18316;SDS011;9284;52.298;21.164;2023-04-30T10:46:27;5.30;;;1.50;;
18316;SDS011;9284;52.298;21.164;2023-04-30T10:48:57;4.53;;;1.40;;
18316;SDS011;9284;52.298;21.164;2023-04-30T10:51:33;7.13;;;1.73;;
18316;SDS011;9284;52.298;21.164;2023-04-30T10:54:14;6.22;;;2.47;;
18316;SDS011;9284;52.298;21.164;2023-04-30T10:56:44;3.65;;;1.20;;
18316;SDS011;9284;52.298;21.164;2023-04-30T10:59:13;5.03;;;1.60;;
18316;SDS011;9284;52.298;21.164;2023-04-30T11:01:55;3.60;;;1.10;;
18316;SDS011;9284;52.298;21.164;2023-04-30T11:04:29;4.90;;;1.38;;
18316;SDS011;9284;52.298;21.164;2023-04-30T11:07:01;2.97;;;1.58;;
18316;SDS011;9284;52.298;21.164;2023-04-30T11:09:35;5.70;;;1.55;;
18316;SDS011;9284;52.298;21.164;2023-04-30T11:12:09;4.50;;;1.50;;
18316;SDS011;9284;52.298;21.164;2023-04-30T11:14:40;5.65;;;1.75;;
18316;SDS011;9284;52.298;21.164;2023-04-30T11:17:10;5.72;;;1.27;;
18316;SDS011;9284;52.298;21.164;2023-04-30T11:19:47;3.97;;;1.70;;
18316;SDS011;9284;52.298;21.164;2023-04-30T11:22:17;2.90;;;1.20;;
18316;SDS011;9284;52.298;21.164;2023-04-30T11:24:51;3.47;;;1.20;;
18316;SDS011;9284;52.298;21.164;2023-04-30T11:27:22;2.25;;;1.10;;
18316;SDS011;9284;52.298;21.164;2023-04-30T11:29:51;4.85;;;1.83;;
18316;SDS011;9284;52.298;21.164;2023-04-30T11:32:22;3.80;;;1.30;;
18316;SDS011;9284;52.298;21.164;2023-04-30T11:34:53;4.13;;;1.20;;
18316;SDS011;9284;52.298;21.164;2023-04-30T11:37:24;3.63;;;1.30;;
18316;SDS011;9284;52.298;21.164;2023-04-30T11:39:59;6.05;;;1.58;;
18316;SDS011;9284;52.298;21.164;2023-04-30T11:42:29;3.67;;;1.95;;
18316;SDS011;9284;52.298;21.164;2023-04-30T11:45:04;4.70;;;1.50;;
18316;SDS011;9284;52.298;21.164;2023-04-30T11:47:40;3.40;;;1.40;;
18316;SDS011;9284;52.298;21.164;2023-04-30T11:50:11;6.18;;;1.63;;
18316;SDS011;9284;52.298;21.164;2023-04-30T11:52:42;5.80;;;2.38;;
18316;SDS011;9284;52.298;21.164;2023-04-30T11:55:17;2.60;;;1.50;;
18316;SDS011;9284;52.298;21.164;2023-04-30T11:57:47;4.90;;;2.00;;
18316;SDS011;9284;52.298;21.164;2023-04-30T12:00:17;4.07;;;1.58;;
18316;SDS011;9284;52.298;21.164;2023-04-30T12:02:48;5.15;;;1.48;;
18316;SDS011;9284;52.298;21.164;2023-04-30T12:05:19;3.33;;;1.75;;
18316;SDS011;9284;52.298;21.164;2023-04-30T12:07:48;2.92;;;1.60;;
18316;SDS011;9284;52.298;21.164;2023-04-30T12:10:18;2.92;;;1.60;;
18316;SDS011;9284;52.298;21.164;2023-04-30T12:12:47;4.72;;;1.67;;
18316;SDS011;9284;52.298;21.164;2023-04-30T12:15:18;4.05;;;1.40;;
18316;SDS011;9284;52.298;21.164;2023-04-30T12:17:52;3.80;;;1.05;;
18316;SDS011;9284;52.298;21.164;2023-04-30T12:20:27;3.20;;;1.40;;
18316;SDS011;9284;52.298;21.164;2023-04-30T12:22:57;3.42;;;1.48;;
18316;SDS011;9284;52.298;21.164;2023-04-30T12:25:27;4.47;;;1.45;;
18316;SDS011;9284;52.298;21.164;2023-04-30T12:27:57;4.93;;;1.50;;
18316;SDS011;9284;52.298;21.164;2023-04-30T12:30:26;5.30;;;1.67;;
18316;SDS011;9284;52.298;21.164;2023-04-30T12:32:56;4.35;;;1.73;;
18316;SDS011;9284;52.298;21.164;2023-04-30T12:35:28;3.53;;;1.50;;
18316;SDS011;9284;52.298;21.164;2023-04-30T12:38:01;7.05;;;1.60;;
18316;SDS011;9284;52.298;21.164;2023-04-30T12:40:31;3.75;;;1.40;;
18316;SDS011;9284;52.298;21.164;2023-04-30T12:43:00;2.78;;;1.50;;
18316;SDS011;9284;52.298;21.164;2023-04-30T12:45:42;2.70;;;1.35;;
18316;SDS011;9284;52.298;21.164;2023-04-30T12:48:13;3.75;;;1.25;;
18316;SDS011;9284;52.298;21.164;2023-04-30T12:50:47;3.28;;;1.30;;
18316;SDS011;9284;52.298;21.164;2023-04-30T12:53:19;1.80;;;1.10;;
18316;SDS011;9284;52.298;21.164;2023-04-30T12:58:39;4.70;;;1.55;;
18316;SDS011;9284;52.298;21.164;2023-04-30T13:01:09;9.57;;;2.30;;
18316;SDS011;9284;52.298;21.164;2023-04-30T13:03:39;5.88;;;3.22;;
18316;SDS011;9284;52.298;21.164;2023-04-30T13:06:09;7.53;;;1.48;;
18316;SDS011;9284;52.298;21.164;2023-04-30T13:08:37;3.20;;;2.17;;
18316;SDS011;9284;52.298;21.164;2023-04-30T13:11:23;4.75;;;1.40;;
18316;SDS011;9284;52.298;21.164;2023-04-30T13:13:53;10.25;;;2.10;;
18316;SDS011;9284;52.298;21.164;2023-04-30T13:16:22;2.33;;;1.48;;
18316;SDS011;9284;52.298;21.164;2023-04-30T13:18:51;2.85;;;1.25;;
18316;SDS011;9284;52.298;21.164;2023-04-30T13:21:21;2.92;;;1.77;;
18316;SDS011;9284;52.298;21.164;2023-04-30T13:23:50;4.70;;;1.50;;
18316;SDS011;9284;52.298;21.164;2023-04-30T13:26:21;2.22;;;1.30;;
18316;SDS011;9284;52.298;21.164;2023-04-30T13:28:49;3.55;;;1.38;;
18316;SDS011;9284;52.298;21.164;2023-04-30T13:31:18;3.30;;;1.33;;
18316;SDS011;9284;52.298;21.164;2023-04-30T13:33:47;2.78;;;1.80;;
18316;SDS011;9284;52.298;21.164;2023-04-30T13:36:16;3.50;;;1.65;;
18316;SDS011;9284;52.298;21.164;2023-04-30T13:38:46;4.32;;;1.50;;
18316;SDS011;9284;52.298;21.164;2023-04-30T13:41:14;3.28;;;1.50;;
18316;SDS011;9284;52.298;21.164;2023-04-30T13:43:42;2.85;;;1.30;;
18316;SDS011;9284;52.298;21.164;2023-04-30T13:46:13;5.63;;;1.55;;
18316;SDS011;9284;52.298;21.164;2023-04-30T13:48:42;4.43;;;1.40;;
18316;SDS011;9284;52.298;21.164;2023-04-30T13:51:13;5.40;;;1.50;;
18316;SDS011;9284;52.298;21.164;2023-04-30T13:53:41;3.25;;;1.40;;
18316;SDS011;9284;52.298;21.164;2023-04-30T13:56:11;3.45;;;1.50;;
18316;SDS011;9284;52.298;21.164;2023-04-30T13:58:40;4.40;;;1.45;;
18316;SDS011;9284;52.298;21.164;2023-04-30T14:01:09;2.58;;;1.20;;
18316;SDS011;9284;52.298;21.164;2023-04-30T14:03:37;6.95;;;1.50;;
18316;SDS011;9284;52.298;21.164;2023-04-30T14:06:06;2.35;;;1.20;;
18316;SDS011;9284;52.298;21.164;2023-04-30T14:08:34;4.28;;;1.40;;
18316;SDS011;9284;52.298;21.164;2023-04-30T14:11:03;2.33;;;1.10;;
18316;SDS011;9284;52.298;21.164;2023-04-30T14:13:32;5.35;;;1.60;;
18316;SDS011;9284;52.298;21.164;2023-04-30T14:16:01;2.80;;;1.38;;
18316;SDS011;9284;52.298;21.164;2023-04-30T14:18:29;4.00;;;1.23;;
18316;SDS011;9284;52.298;21.164;2023-04-30T14:20:57;1.45;;;1.20;;
18316;SDS011;9284;52.298;21.164;2023-04-30T14:23:26;2.10;;;1.40;;
18316;SDS011;9284;52.298;21.164;2023-04-30T14:25:54;3.45;;;1.50;;
18316;SDS011;9284;52.298;21.164;2023-04-30T14:28:23;1.73;;;1.10;;
18316;SDS011;9284;52.298;21.164;2023-04-30T14:30:52;2.35;;;1.20;;
18316;SDS011;9284;52.298;21.164;2023-04-30T14:33:21;1.98;;;1.27;;
18316;SDS011;9284;52.298;21.164;2023-04-30T14:35:49;4.70;;;1.20;;
18316;SDS011;9284;52.298;21.164;2023-04-30T14:38:17;1.67;;;1.17;;
18316;SDS011;9284;52.298;21.164;2023-04-30T14:40:46;2.95;;;1.23;;
18316;SDS011;9284;52.298;21.164;2023-04-30T14:43:14;2.55;;;1.20;;
18316;SDS011;9284;52.298;21.164;2023-04-30T14:45:43;2.10;;;1.33;;
18316;SDS011;9284;52.298;21.164;2023-04-30T14:48:13;4.40;;;1.23;;
18316;SDS011;9284;52.298;21.164;2023-04-30T14:50:42;2.42;;;1.25;;
18316;SDS011;9284;52.298;21.164;2023-04-30T14:53:10;4.55;;;1.85;;
18316;SDS011;9284;52.298;21.164;2023-04-30T14:55:39;2.05;;;1.17;;
18316;SDS011;9284;52.298;21.164;2023-04-30T14:58:07;4.38;;;1.20;;
18316;SDS011;9284;52.298;21.164;2023-04-30T15:00:39;5.57;;;1.30;;